sensor_id;sensor_type;location;lat;lon;timestamp;P1;durP1;ratioP1;P2;durP2;ratioP2
55989;SDS011;41875;55.806;38.082;2024-02-28T00:01:51;19.35;;;6.75;;
55989;SDS011;41875;55.806;38.082;2024-02-28T00:04:55;17.52;;;7.15;;
55989;SDS011;41875;55.806;38.082;2024-02-28T00:08:01;19.00;;;6.47;;
55989;SDS011;41875;55.806;38.082;2024-02-28T00:11:04;13.27;;;6.15;;
55989;SDS011;41875;55.806;38.082;2024-02-28T00:14:08;11.93;;;5.43;;
55989;SDS011;41875;55.806;38.082;2024-02-28T00:17:14;16.75;;;7.45;;
55989;SDS011;41875;55.806;38.082;2024-02-28T00:20:18;16.38;;;6.72;;
55989;SDS011;41875;55.806;38.082;2024-02-28T00:23:21;18.02;;;6.53;;
55989;SDS011;41875;55.806;38.082;2024-02-28T00:26:25;18.00;;;6.72;;
55989;SDS011;41875;55.806;38.082;2024-02-28T00:29:32;18.98;;;7.28;;
55989;SDS011;41875;55.806;38.082;2024-02-28T00:32:37;16.35;;;5.78;;
55989;SDS011;41875;55.806;38.082;2024-02-28T00:35:40;19.95;;;7.43;;
55989;SDS011;41875;55.806;38.082;2024-02-28T00:38:44;16.50;;;6.20;;
55989;SDS011;41875;55.806;38.082;2024-02-28T00:41:48;17.05;;;6.70;;
55989;SDS011;41875;55.806;38.082;2024-02-28T00:44:51;15.98;;;6.35;;
55989;SDS011;41875;55.806;38.082;2024-02-28T00:47:56;20.70;;;6.40;;
55989;SDS011;41875;55.806;38.082;2024-02-28T00:51:00;20.63;;;6.82;;
55989;SDS011;41875;55.806;38.082;2024-02-28T00:54:05;17.10;;;6.78;;
55989;SDS011;41875;55.806;38.082;2024-02-28T00:57:10;17.23;;;7.07;;
55989;SDS011;41875;55.806;38.082;2024-02-28T01:00:14;16.20;;;6.47;;
55989;SDS011;41875;55.806;38.082;2024-02-28T01:03:19;18.58;;;7.00;;
55989;SDS011;41875;55.806;38.082;2024-02-28T01:06:23;13.60;;;6.03;;
55989;SDS011;41875;55.806;38.082;2024-02-28T01:09:27;14.85;;;6.28;;
55989;SDS011;41875;55.806;38.082;2024-02-28T01:12:30;19.50;;;6.82;;
55989;SDS011;41875;55.806;38.082;2024-02-28T01:15:34;16.77;;;6.88;;
55989;SDS011;41875;55.806;38.082;2024-02-28T01:18:39;12.93;;;5.88;;
55989;SDS011;41875;55.806;38.082;2024-02-28T01:21:43;21.77;;;6.65;;
55989;SDS011;41875;55.806;38.082;2024-02-28T01:24:47;13.38;;;5.57;;
55989;SDS011;41875;55.806;38.082;2024-02-28T01:27:51;10.15;;;4.55;;
55989;SDS011;41875;55.806;38.082;2024-02-28T01:30:54;14.68;;;5.82;;
55989;SDS011;41875;55.806;38.082;2024-02-28T01:33:59;17.48;;;6.55;;
55989;SDS011;41875;55.806;38.082;2024-02-28T01:37:03;18.10;;;6.10;;
55989;SDS011;41875;55.806;38.082;2024-02-28T01:40:07;13.93;;;4.75;;
55989;SDS011;41875;55.806;38.082;2024-02-28T01:43:11;8.18;;;3.90;;
55989;SDS011;41875;55.806;38.082;2024-02-28T01:46:20;14.98;;;5.93;;
55989;SDS011;41875;55.806;38.082;2024-02-28T01:49:28;18.30;;;6.53;;
55989;SDS011;41875;55.806;38.082;2024-02-28T01:52:32;15.25;;;6.43;;
55989;SDS011;41875;55.806;38.082;2024-02-28T01:55:36;20.83;;;5.93;;
55989;SDS011;41875;55.806;38.082;2024-02-28T01:58:40;16.83;;;6.65;;
55989;SDS011;41875;55.806;38.082;2024-02-28T02:01:45;15.82;;;6.30;;
55989;SDS011;41875;55.806;38.082;2024-02-28T02:04:50;16.75;;;6.53;;
55989;SDS011;41875;55.806;38.082;2024-02-28T02:07:55;16.00;;;6.75;;
55989;SDS011;41875;55.806;38.082;2024-02-28T02:11:00;13.35;;;4.97;;
55989;SDS011;41875;55.806;38.082;2024-02-28T02:14:05;13.48;;;5.68;;
55989;SDS011;41875;55.806;38.082;2024-02-28T02:17:09;14.95;;;5.60;;
55989;SDS011;41875;55.806;38.082;2024-02-28T02:20:15;13.05;;;5.30;;
55989;SDS011;41875;55.806;38.082;2024-02-28T02:23:21;13.48;;;5.50;;
55989;SDS011;41875;55.806;38.082;2024-02-28T02:26:25;17.23;;;7.32;;
55989;SDS011;41875;55.806;38.082;2024-02-28T02:29:28;15.57;;;5.65;;
55989;SDS011;41875;55.806;38.082;2024-02-28T02:32:32;15.77;;;5.88;;
55989;SDS011;41875;55.806;38.082;2024-02-28T02:35:36;13.77;;;5.50;;
55989;SDS011;41875;55.806;38.082;2024-02-28T02:38:43;13.45;;;6.35;;
55989;SDS011;41875;55.806;38.082;2024-02-28T02:41:46;12.50;;;5.50;;
55989;SDS011;41875;55.806;38.082;2024-02-28T02:44:50;18.27;;;6.72;;
55989;SDS011;41875;55.806;38.082;2024-02-28T02:47:54;12.65;;;5.90;;
55989;SDS011;41875;55.806;38.082;2024-02-28T02:50:57;13.88;;;6.43;;
55989;SDS011;41875;55.806;38.082;2024-02-28T02:54:04;15.68;;;5.25;;
55989;SDS011;41875;55.806;38.082;2024-02-28T02:57:08;17.13;;;5.57;;
55989;SDS011;41875;55.806;38.082;2024-02-28T03:00:15;12.70;;;5.70;;
55989;SDS011;41875;55.806;38.082;2024-02-28T03:03:19;14.65;;;6.13;;
55989;SDS011;41875;55.806;38.082;2024-02-28T03:06:23;12.98;;;5.30;;
55989;SDS011;41875;55.806;38.082;2024-02-28T03:09:31;14.98;;;6.63;;
55989;SDS011;41875;55.806;38.082;2024-02-28T03:12:35;10.68;;;5.40;;
55989;SDS011;41875;55.806;38.082;2024-02-28T03:15:39;18.20;;;6.60;;
55989;SDS011;41875;55.806;38.082;2024-02-28T03:18:43;14.57;;;6.57;;
55989;SDS011;41875;55.806;38.082;2024-02-28T03:21:49;16.40;;;6.63;;
55989;SDS011;41875;55.806;38.082;2024-02-28T03:24:55;18.20;;;6.93;;
55989;SDS011;41875;55.806;38.082;2024-02-28T03:27:59;17.13;;;6.35;;
55989;SDS011;41875;55.806;38.082;2024-02-28T03:31:04;15.90;;;6.82;;
55989;SDS011;41875;55.806;38.082;2024-02-28T03:34:08;9.25;;;4.82;;
55989;SDS011;41875;55.806;38.082;2024-02-28T03:37:12;14.95;;;5.45;;
55989;SDS011;41875;55.806;38.082;2024-02-28T03:40:17;14.57;;;5.82;;
55989;SDS011;41875;55.806;38.082;2024-02-28T03:43:20;14.77;;;5.90;;
55989;SDS011;41875;55.806;38.082;2024-02-28T03:46:25;15.85;;;5.47;;
55989;SDS011;41875;55.806;38.082;2024-02-28T03:49:31;15.90;;;5.70;;
55989;SDS011;41875;55.806;38.082;2024-02-28T03:52:35;13.93;;;5.88;;
55989;SDS011;41875;55.806;38.082;2024-02-28T03:55:40;16.35;;;6.72;;
55989;SDS011;41875;55.806;38.082;2024-02-28T03:58:45;17.27;;;6.35;;
55989;SDS011;41875;55.806;38.082;2024-02-28T04:01:49;16.27;;;6.93;;
55989;SDS011;41875;55.806;38.082;2024-02-28T04:04:53;17.17;;;5.80;;
55989;SDS011;41875;55.806;38.082;2024-02-28T04:07:56;15.55;;;5.00;;
55989;SDS011;41875;55.806;38.082;2024-02-28T04:11:02;17.38;;;6.90;;
55989;SDS011;41875;55.806;38.082;2024-02-28T04:14:05;19.02;;;6.80;;
55989;SDS011;41875;55.806;38.082;2024-02-28T04:17:09;16.63;;;6.65;;
55989;SDS011;41875;55.806;38.082;2024-02-28T04:20:13;20.67;;;7.50;;
55989;SDS011;41875;55.806;38.082;2024-02-28T04:23:17;13.88;;;5.95;;
55989;SDS011;41875;55.806;38.082;2024-02-28T04:26:22;17.40;;;6.95;;
55989;SDS011;41875;55.806;38.082;2024-02-28T04:29:25;14.20;;;5.75;;
55989;SDS011;41875;55.806;38.082;2024-02-28T04:32:29;19.58;;;6.93;;
55989;SDS011;41875;55.806;38.082;2024-02-28T04:35:32;13.13;;;6.20;;
55989;SDS011;41875;55.806;38.082;2024-02-28T04:38:36;18.10;;;6.18;;
55989;SDS011;41875;55.806;38.082;2024-02-28T04:41:41;15.65;;;6.47;;
55989;SDS011;41875;55.806;38.082;2024-02-28T04:44:45;15.80;;;7.13;;
55989;SDS011;41875;55.806;38.082;2024-02-28T04:47:48;16.83;;;6.38;;
55989;SDS011;41875;55.806;38.082;2024-02-28T04:50:53;14.07;;;6.03;;
55989;SDS011;41875;55.806;38.082;2024-02-28T04:53:57;13.95;;;5.65;;
55989;SDS011;41875;55.806;38.082;2024-02-28T04:57:02;15.02;;;5.32;;
55989;SDS011;41875;55.806;38.082;2024-02-28T05:00:06;16.48;;;6.15;;
55989;SDS011;41875;55.806;38.082;2024-02-28T05:03:11;16.15;;;5.68;;
55989;SDS011;41875;55.806;38.082;2024-02-28T05:06:14;17.45;;;6.35;;
55989;SDS011;41875;55.806;38.082;2024-02-28T05:09:18;11.32;;;5.20;;
55989;SDS011;41875;55.806;38.082;2024-02-28T05:12:23;13.27;;;4.85;;
55989;SDS011;41875;55.806;38.082;2024-02-28T05:15:27;14.73;;;5.47;;
55989;SDS011;41875;55.806;38.082;2024-02-28T05:18:31;14.88;;;5.90;;
55989;SDS011;41875;55.806;38.082;2024-02-28T05:21:39;13.45;;;4.78;;
55989;SDS011;41875;55.806;38.082;2024-02-28T05:24:45;13.25;;;4.63;;
55989;SDS011;41875;55.806;38.082;2024-02-28T05:27:50;14.18;;;5.60;;
55989;SDS011;41875;55.806;38.082;2024-02-28T05:30:54;12.85;;;4.72;;
55989;SDS011;41875;55.806;38.082;2024-02-28T05:33:58;13.15;;;5.50;;
55989;SDS011;41875;55.806;38.082;2024-02-28T05:41:37;10.70;;;4.53;;
55989;SDS011;41875;55.806;38.082;2024-02-28T05:44:42;16.25;;;5.25;;
55989;SDS011;41875;55.806;38.082;2024-02-28T05:47:45;8.73;;;3.72;;
55989;SDS011;41875;55.806;38.082;2024-02-28T05:50:49;11.38;;;4.82;;
55989;SDS011;41875;55.806;38.082;2024-02-28T05:53:53;10.32;;;4.07;;
55989;SDS011;41875;55.806;38.082;2024-02-28T05:56:56;12.13;;;4.15;;
55989;SDS011;41875;55.806;38.082;2024-02-28T06:00:02;10.88;;;4.88;;
55989;SDS011;41875;55.806;38.082;2024-02-28T06:03:15;12.20;;;4.65;;
55989;SDS011;41875;55.806;38.082;2024-02-28T06:06:19;8.38;;;3.97;;
55989;SDS011;41875;55.806;38.082;2024-02-28T06:09:23;16.33;;;4.45;;
55989;SDS011;41875;55.806;38.082;2024-02-28T06:12:26;9.20;;;3.38;;
55989;SDS011;41875;55.806;38.082;2024-02-28T06:15:32;9.13;;;3.33;;
55989;SDS011;41875;55.806;38.082;2024-02-28T06:18:35;8.35;;;3.50;;
55989;SDS011;41875;55.806;38.082;2024-02-28T06:21:39;9.57;;;3.95;;
55989;SDS011;41875;55.806;38.082;2024-02-28T06:24:42;10.52;;;3.58;;
55989;SDS011;41875;55.806;38.082;2024-02-28T06:27:46;12.45;;;4.50;;
55989;SDS011;41875;55.806;38.082;2024-02-28T06:30:52;10.60;;;3.90;;
55989;SDS011;41875;55.806;38.082;2024-02-28T06:33:55;14.13;;;4.22;;
55989;SDS011;41875;55.806;38.082;2024-02-28T06:36:59;10.65;;;4.53;;
55989;SDS011;41875;55.806;38.082;2024-02-28T06:40:03;11.73;;;4.57;;
55989;SDS011;41875;55.806;38.082;2024-02-28T06:43:10;15.85;;;4.35;;
55989;SDS011;41875;55.806;38.082;2024-02-28T06:46:15;11.30;;;3.63;;
55989;SDS011;41875;55.806;38.082;2024-02-28T06:49:19;10.68;;;4.20;;
55989;SDS011;41875;55.806;38.082;2024-02-28T06:52:23;10.85;;;4.78;;
55989;SDS011;41875;55.806;38.082;2024-02-28T06:55:27;10.70;;;4.32;;
55989;SDS011;41875;55.806;38.082;2024-02-28T06:58:30;10.75;;;4.10;;
55989;SDS011;41875;55.806;38.082;2024-02-28T07:01:35;9.40;;;3.92;;
55989;SDS011;41875;55.806;38.082;2024-02-28T07:04:39;11.70;;;4.20;;
55989;SDS011;41875;55.806;38.082;2024-02-28T07:07:44;10.05;;;4.18;;
55989;SDS011;41875;55.806;38.082;2024-02-28T07:10:47;12.45;;;5.07;;
55989;SDS011;41875;55.806;38.082;2024-02-28T07:13:55;14.40;;;4.55;;
55989;SDS011;41875;55.806;38.082;2024-02-28T07:17:05;15.02;;;4.80;;
55989;SDS011;41875;55.806;38.082;2024-02-28T07:20:10;16.52;;;5.60;;
55989;SDS011;41875;55.806;38.082;2024-02-28T07:23:14;12.05;;;4.85;;
55989;SDS011;41875;55.806;38.082;2024-02-28T07:26:18;11.65;;;5.30;;
55989;SDS011;41875;55.806;38.082;2024-02-28T07:29:28;11.93;;;5.13;;
55989;SDS011;41875;55.806;38.082;2024-02-28T07:32:33;11.07;;;4.68;;
55989;SDS011;41875;55.806;38.082;2024-02-28T07:48:34;13.65;;;6.25;;
55989;SDS011;41875;55.806;38.082;2024-02-28T07:51:38;10.68;;;4.93;;
55989;SDS011;41875;55.806;38.082;2024-02-28T07:54:42;14.27;;;6.38;;
55989;SDS011;41875;55.806;38.082;2024-02-28T07:57:46;13.10;;;5.20;;
55989;SDS011;41875;55.806;38.082;2024-02-28T08:00:49;13.80;;;5.20;;
55989;SDS011;41875;55.806;38.082;2024-02-28T08:03:56;12.68;;;5.53;;
55989;SDS011;41875;55.806;38.082;2024-02-28T08:06:59;16.40;;;5.78;;
55989;SDS011;41875;55.806;38.082;2024-02-28T08:10:03;16.08;;;6.32;;
55989;SDS011;41875;55.806;38.082;2024-02-28T08:13:08;15.20;;;5.63;;
55989;SDS011;41875;55.806;38.082;2024-02-28T08:16:11;14.35;;;5.45;;
55989;SDS011;41875;55.806;38.082;2024-02-28T08:19:17;12.57;;;4.47;;
55989;SDS011;41875;55.806;38.082;2024-02-28T08:22:20;10.40;;;3.95;;
55989;SDS011;41875;55.806;38.082;2024-02-28T08:25:24;14.90;;;4.65;;
55989;SDS011;41875;55.806;38.082;2024-02-28T08:28:28;14.75;;;4.85;;
55989;SDS011;41875;55.806;38.082;2024-02-28T08:31:31;11.90;;;5.13;;
55989;SDS011;41875;55.806;38.082;2024-02-28T08:34:36;16.85;;;5.47;;
55989;SDS011;41875;55.806;38.082;2024-02-28T08:37:40;12.68;;;4.80;;
55989;SDS011;41875;55.806;38.082;2024-02-28T08:40:44;16.20;;;5.18;;
55989;SDS011;41875;55.806;38.082;2024-02-28T08:43:48;13.23;;;5.18;;
55989;SDS011;41875;55.806;38.082;2024-02-28T08:46:51;14.40;;;6.10;;
55989;SDS011;41875;55.806;38.082;2024-02-28T08:49:56;11.27;;;5.10;;
55989;SDS011;41875;55.806;38.082;2024-02-28T08:53:00;12.73;;;5.90;;
55989;SDS011;41875;55.806;38.082;2024-02-28T08:56:05;11.13;;;5.10;;
55989;SDS011;41875;55.806;38.082;2024-02-28T08:59:09;13.23;;;4.85;;
55989;SDS011;41875;55.806;38.082;2024-02-28T09:02:13;12.63;;;5.32;;
55989;SDS011;41875;55.806;38.082;2024-02-28T09:05:18;10.60;;;4.95;;
55989;SDS011;41875;55.806;38.082;2024-02-28T09:08:22;15.07;;;5.18;;
55989;SDS011;41875;55.806;38.082;2024-02-28T09:11:25;11.40;;;5.03;;
55989;SDS011;41875;55.806;38.082;2024-02-28T09:14:29;13.70;;;5.25;;
55989;SDS011;41875;55.806;38.082;2024-02-28T09:17:34;13.07;;;4.97;;
55989;SDS011;41875;55.806;38.082;2024-02-28T09:20:39;15.80;;;4.53;;
55989;SDS011;41875;55.806;38.082;2024-02-28T09:23:43;14.93;;;5.25;;
55989;SDS011;41875;55.806;38.082;2024-02-28T09:26:47;14.13;;;4.63;;
55989;SDS011;41875;55.806;38.082;2024-02-28T09:29:50;14.45;;;4.88;;
55989;SDS011;41875;55.806;38.082;2024-02-28T09:32:54;13.05;;;4.55;;
55989;SDS011;41875;55.806;38.082;2024-02-28T09:35:59;15.55;;;5.10;;
55989;SDS011;41875;55.806;38.082;2024-02-28T09:43:04;16.17;;;4.68;;
55989;SDS011;41875;55.806;38.082;2024-02-28T09:46:09;13.82;;;4.82;;
55989;SDS011;41875;55.806;38.082;2024-02-28T09:49:15;11.25;;;5.45;;
55989;SDS011;41875;55.806;38.082;2024-02-28T09:52:20;12.80;;;4.80;;
55989;SDS011;41875;55.806;38.082;2024-02-28T09:55:24;15.10;;;5.60;;
55989;SDS011;41875;55.806;38.082;2024-02-28T09:58:28;17.02;;;5.65;;
55989;SDS011;41875;55.806;38.082;2024-02-28T10:01:33;11.82;;;5.10;;
55989;SDS011;41875;55.806;38.082;2024-02-28T10:04:45;15.90;;;5.25;;
55989;SDS011;41875;55.806;38.082;2024-02-28T10:07:50;13.13;;;5.15;;
55989;SDS011;41875;55.806;38.082;2024-02-28T10:10:55;17.20;;;5.18;;
55989;SDS011;41875;55.806;38.082;2024-02-28T10:14:00;16.77;;;6.20;;
55989;SDS011;41875;55.806;38.082;2024-02-28T10:17:06;13.85;;;6.07;;
55989;SDS011;41875;55.806;38.082;2024-02-28T10:20:12;14.38;;;5.82;;
55989;SDS011;41875;55.806;38.082;2024-02-28T10:23:17;14.50;;;4.93;;
55989;SDS011;41875;55.806;38.082;2024-02-28T10:26:24;15.13;;;5.78;;
55989;SDS011;41875;55.806;38.082;2024-02-28T10:29:28;14.68;;;6.03;;
55989;SDS011;41875;55.806;38.082;2024-02-28T10:32:35;13.85;;;6.00;;
55989;SDS011;41875;55.806;38.082;2024-02-28T10:35:40;12.52;;;5.53;;
55989;SDS011;41875;55.806;38.082;2024-02-28T10:38:48;13.82;;;6.05;;
55989;SDS011;41875;55.806;38.082;2024-02-28T10:41:52;14.63;;;5.45;;
55989;SDS011;41875;55.806;38.082;2024-02-28T10:44:58;20.58;;;6.50;;
55989;SDS011;41875;55.806;38.082;2024-02-28T10:48:20;14.52;;;5.80;;
55989;SDS011;41875;55.806;38.082;2024-02-28T10:51:24;17.30;;;5.30;;
55989;SDS011;41875;55.806;38.082;2024-02-28T10:54:44;15.80;;;6.22;;
55989;SDS011;41875;55.806;38.082;2024-02-28T10:58:12;13.20;;;6.10;;
55989;SDS011;41875;55.806;38.082;2024-02-28T11:01:18;13.15;;;5.75;;
55989;SDS011;41875;55.806;38.082;2024-02-28T11:04:24;19.15;;;5.95;;
55989;SDS011;41875;55.806;38.082;2024-02-28T11:07:30;16.42;;;6.32;;
55989;SDS011;41875;55.806;38.082;2024-02-28T11:10:40;17.35;;;6.97;;
55989;SDS011;41875;55.806;38.082;2024-02-28T11:13:51;17.00;;;6.13;;
55989;SDS011;41875;55.806;38.082;2024-02-28T11:17:01;10.27;;;5.03;;
55989;SDS011;41875;55.806;38.082;2024-02-28T11:20:12;16.45;;;5.38;;
55989;SDS011;41875;55.806;38.082;2024-02-28T11:23:17;21.90;;;5.85;;
55989;SDS011;41875;55.806;38.082;2024-02-28T11:26:22;14.88;;;6.30;;
55989;SDS011;41875;55.806;38.082;2024-02-28T11:29:27;18.33;;;6.18;;
55989;SDS011;41875;55.806;38.082;2024-02-28T11:32:31;13.43;;;6.10;;
55989;SDS011;41875;55.806;38.082;2024-02-28T11:35:35;11.93;;;5.22;;
55989;SDS011;41875;55.806;38.082;2024-02-28T11:38:39;16.58;;;5.50;;
55989;SDS011;41875;55.806;38.082;2024-02-28T11:41:45;17.05;;;5.88;;
55989;SDS011;41875;55.806;38.082;2024-02-28T11:44:55;14.73;;;5.45;;
55989;SDS011;41875;55.806;38.082;2024-02-28T11:48:05;16.83;;;5.65;;
55989;SDS011;41875;55.806;38.082;2024-02-28T11:51:10;11.40;;;4.78;;
55989;SDS011;41875;55.806;38.082;2024-02-28T11:54:14;17.92;;;5.88;;
55989;SDS011;41875;55.806;38.082;2024-02-28T11:57:19;12.90;;;5.80;;
55989;SDS011;41875;55.806;38.082;2024-02-28T12:00:24;15.65;;;6.15;;
55989;SDS011;41875;55.806;38.082;2024-02-28T12:03:28;15.75;;;5.47;;
55989;SDS011;41875;55.806;38.082;2024-02-28T12:06:34;14.20;;;6.22;;
55989;SDS011;41875;55.806;38.082;2024-02-28T12:09:43;16.67;;;6.57;;
55989;SDS011;41875;55.806;38.082;2024-02-28T12:12:49;14.07;;;5.72;;
55989;SDS011;41875;55.806;38.082;2024-02-28T12:15:53;16.73;;;5.70;;
55989;SDS011;41875;55.806;38.082;2024-02-28T12:18:58;14.63;;;6.60;;
55989;SDS011;41875;55.806;38.082;2024-02-28T12:22:05;12.80;;;4.40;;
55989;SDS011;41875;55.806;38.082;2024-02-28T12:25:12;17.90;;;6.10;;
55989;SDS011;41875;55.806;38.082;2024-02-28T12:28:21;13.23;;;5.55;;
55989;SDS011;41875;55.806;38.082;2024-02-28T12:31:25;15.55;;;6.15;;
55989;SDS011;41875;55.806;38.082;2024-02-28T12:34:33;13.63;;;5.07;;
55989;SDS011;41875;55.806;38.082;2024-02-28T12:37:36;13.20;;;5.82;;
55989;SDS011;41875;55.806;38.082;2024-02-28T12:40:41;16.85;;;5.82;;
55989;SDS011;41875;55.806;38.082;2024-02-28T12:43:49;15.95;;;5.80;;
55989;SDS011;41875;55.806;38.082;2024-02-28T12:46:52;16.15;;;5.72;;
55989;SDS011;41875;55.806;38.082;2024-02-28T12:49:56;12.65;;;5.35;;
55989;SDS011;41875;55.806;38.082;2024-02-28T12:53:00;16.05;;;5.85;;
55989;SDS011;41875;55.806;38.082;2024-02-28T12:56:04;15.10;;;6.43;;
55989;SDS011;41875;55.806;38.082;2024-02-28T12:59:09;13.52;;;5.80;;
55989;SDS011;41875;55.806;38.082;2024-02-28T13:02:13;15.63;;;6.20;;
55989;SDS011;41875;55.806;38.082;2024-02-28T13:05:17;14.68;;;6.70;;
55989;SDS011;41875;55.806;38.082;2024-02-28T13:08:23;16.73;;;5.97;;
55989;SDS011;41875;55.806;38.082;2024-02-28T13:11:28;16.63;;;5.80;;
55989;SDS011;41875;55.806;38.082;2024-02-28T13:14:34;14.23;;;5.45;;
55989;SDS011;41875;55.806;38.082;2024-02-28T13:17:37;13.63;;;5.75;;
55989;SDS011;41875;55.806;38.082;2024-02-28T13:20:44;16.80;;;5.80;;
55989;SDS011;41875;55.806;38.082;2024-02-28T13:23:48;12.40;;;5.50;;
55989;SDS011;41875;55.806;38.082;2024-02-28T13:26:52;13.13;;;5.32;;
55989;SDS011;41875;55.806;38.082;2024-02-28T13:29:57;16.92;;;6.63;;
55989;SDS011;41875;55.806;38.082;2024-02-28T13:37:50;14.98;;;5.88;;
55989;SDS011;41875;55.806;38.082;2024-02-28T13:40:55;14.65;;;5.70;;
55989;SDS011;41875;55.806;38.082;2024-02-28T13:43:58;13.43;;;5.07;;
55989;SDS011;41875;55.806;38.082;2024-02-28T13:47:04;12.90;;;5.78;;
55989;SDS011;41875;55.806;38.082;2024-02-28T13:50:08;13.43;;;5.53;;
55989;SDS011;41875;55.806;38.082;2024-02-28T13:53:12;13.05;;;5.05;;
55989;SDS011;41875;55.806;38.082;2024-02-28T13:56:17;13.07;;;5.53;;
55989;SDS011;41875;55.806;38.082;2024-02-28T13:59:21;15.75;;;5.72;;
55989;SDS011;41875;55.806;38.082;2024-02-28T14:02:26;14.57;;;5.65;;
55989;SDS011;41875;55.806;38.082;2024-02-28T14:05:30;13.73;;;4.60;;
55989;SDS011;41875;55.806;38.082;2024-02-28T14:08:34;13.70;;;4.65;;
55989;SDS011;41875;55.806;38.082;2024-02-28T14:11:37;12.23;;;5.00;;
55989;SDS011;41875;55.806;38.082;2024-02-28T14:14:41;13.55;;;5.10;;
55989;SDS011;41875;55.806;38.082;2024-02-28T14:17:46;11.18;;;4.95;;
55989;SDS011;41875;55.806;38.082;2024-02-28T14:20:50;13.55;;;5.10;;
55989;SDS011;41875;55.806;38.082;2024-02-28T14:23:54;12.93;;;4.97;;
55989;SDS011;41875;55.806;38.082;2024-02-28T14:26:58;14.82;;;5.57;;
55989;SDS011;41875;55.806;38.082;2024-02-28T14:30:01;13.95;;;5.30;;
55989;SDS011;41875;55.806;38.082;2024-02-28T14:33:11;14.13;;;5.05;;
55989;SDS011;41875;55.806;38.082;2024-02-28T14:36:15;15.25;;;5.55;;
55989;SDS011;41875;55.806;38.082;2024-02-28T14:39:20;18.35;;;5.75;;
55989;SDS011;41875;55.806;38.082;2024-02-28T14:42:24;17.65;;;6.40;;
55989;SDS011;41875;55.806;38.082;2024-02-28T14:45:28;13.75;;;5.65;;
55989;SDS011;41875;55.806;38.082;2024-02-28T14:48:35;16.15;;;5.70;;
55989;SDS011;41875;55.806;38.082;2024-02-28T14:51:39;11.27;;;5.35;;
55989;SDS011;41875;55.806;38.082;2024-02-28T14:54:43;14.40;;;5.97;;
55989;SDS011;41875;55.806;38.082;2024-02-28T14:57:48;17.80;;;6.50;;
55989;SDS011;41875;55.806;38.082;2024-02-28T15:00:52;13.95;;;5.28;;
55989;SDS011;41875;55.806;38.082;2024-02-28T15:04:02;14.57;;;5.72;;
55989;SDS011;41875;55.806;38.082;2024-02-28T15:07:06;12.00;;;5.93;;
55989;SDS011;41875;55.806;38.082;2024-02-28T15:10:10;12.82;;;5.55;;
55989;SDS011;41875;55.806;38.082;2024-02-28T15:13:16;15.07;;;5.57;;
55989;SDS011;41875;55.806;38.082;2024-02-28T15:16:19;12.10;;;5.85;;
55989;SDS011;41875;55.806;38.082;2024-02-28T15:19:27;12.10;;;5.05;;
55989;SDS011;41875;55.806;38.082;2024-02-28T15:22:33;13.68;;;5.13;;
55989;SDS011;41875;55.806;38.082;2024-02-28T15:25:39;15.15;;;5.50;;
55989;SDS011;41875;55.806;38.082;2024-02-28T15:28:43;12.35;;;5.30;;
55989;SDS011;41875;55.806;38.082;2024-02-28T15:31:47;13.10;;;5.75;;
55989;SDS011;41875;55.806;38.082;2024-02-28T15:34:52;18.50;;;6.18;;
55989;SDS011;41875;55.806;38.082;2024-02-28T15:37:56;12.55;;;5.40;;
55989;SDS011;41875;55.806;38.082;2024-02-28T15:49:11;14.68;;;7.07;;
55989;SDS011;41875;55.806;38.082;2024-02-28T15:52:20;14.10;;;6.75;;
55989;SDS011;41875;55.806;38.082;2024-02-28T15:55:24;17.70;;;7.72;;
55989;SDS011;41875;55.806;38.082;2024-02-28T15:58:27;15.35;;;6.93;;
55989;SDS011;41875;55.806;38.082;2024-02-28T16:01:31;19.25;;;7.32;;
55989;SDS011;41875;55.806;38.082;2024-02-28T16:04:35;20.65;;;6.97;;
55989;SDS011;41875;55.806;38.082;2024-02-28T16:07:41;15.15;;;6.22;;
55989;SDS011;41875;55.806;38.082;2024-02-28T16:10:49;15.50;;;6.93;;
55989;SDS011;41875;55.806;38.082;2024-02-28T16:14:03;13.30;;;6.07;;
55989;SDS011;41875;55.806;38.082;2024-02-28T16:17:24;13.38;;;6.38;;
55989;SDS011;41875;55.806;38.082;2024-02-28T16:20:30;14.48;;;6.53;;
55989;SDS011;41875;55.806;38.082;2024-02-28T16:23:36;13.20;;;5.68;;
55989;SDS011;41875;55.806;38.082;2024-02-28T16:26:39;16.15;;;6.00;;
55989;SDS011;41875;55.806;38.082;2024-02-28T16:29:46;17.27;;;6.72;;
55989;SDS011;41875;55.806;38.082;2024-02-28T16:32:49;13.65;;;6.60;;
55989;SDS011;41875;55.806;38.082;2024-02-28T16:35:57;15.90;;;6.93;;
55989;SDS011;41875;55.806;38.082;2024-02-28T16:39:02;12.40;;;5.82;;
55989;SDS011;41875;55.806;38.082;2024-02-28T16:42:06;16.08;;;6.13;;
55989;SDS011;41875;55.806;38.082;2024-02-28T16:45:10;15.13;;;6.13;;
55989;SDS011;41875;55.806;38.082;2024-02-28T16:48:14;17.55;;;6.78;;
55989;SDS011;41875;55.806;38.082;2024-02-28T16:51:18;17.25;;;6.55;;
55989;SDS011;41875;55.806;38.082;2024-02-28T16:54:24;14.95;;;6.53;;
55989;SDS011;41875;55.806;38.082;2024-02-28T16:57:28;15.45;;;5.03;;
55989;SDS011;41875;55.806;38.082;2024-02-28T17:00:34;15.00;;;5.85;;
55989;SDS011;41875;55.806;38.082;2024-02-28T17:07:48;16.80;;;7.35;;
55989;SDS011;41875;55.806;38.082;2024-02-28T17:11:05;13.93;;;6.05;;
55989;SDS011;41875;55.806;38.082;2024-02-28T17:14:13;17.13;;;6.60;;
55989;SDS011;41875;55.806;38.082;2024-02-28T17:17:24;14.55;;;6.07;;
55989;SDS011;41875;55.806;38.082;2024-02-28T17:20:31;14.52;;;5.95;;
55989;SDS011;41875;55.806;38.082;2024-02-28T17:23:39;15.05;;;5.85;;
55989;SDS011;41875;55.806;38.082;2024-02-28T17:26:50;12.65;;;5.35;;
55989;SDS011;41875;55.806;38.082;2024-02-28T17:29:55;15.45;;;6.47;;
55989;SDS011;41875;55.806;38.082;2024-02-28T17:33:03;16.05;;;6.32;;
55989;SDS011;41875;55.806;38.082;2024-02-28T17:36:07;18.10;;;5.93;;
55989;SDS011;41875;55.806;38.082;2024-02-28T17:39:12;13.30;;;5.10;;
55989;SDS011;41875;55.806;38.082;2024-02-28T17:42:31;12.45;;;5.38;;
55989;SDS011;41875;55.806;38.082;2024-02-28T17:45:35;12.25;;;4.95;;
55989;SDS011;41875;55.806;38.082;2024-02-28T17:48:42;14.18;;;5.90;;
55989;SDS011;41875;55.806;38.082;2024-02-28T17:51:47;14.15;;;5.35;;
55989;SDS011;41875;55.806;38.082;2024-02-28T17:54:54;17.92;;;5.28;;
55989;SDS011;41875;55.806;38.082;2024-02-28T17:58:02;11.82;;;5.10;;
55989;SDS011;41875;55.806;38.082;2024-02-28T18:01:06;12.88;;;5.35;;
55989;SDS011;41875;55.806;38.082;2024-02-28T18:04:17;19.67;;;6.10;;
55989;SDS011;41875;55.806;38.082;2024-02-28T18:07:22;11.43;;;5.25;;
55989;SDS011;41875;55.806;38.082;2024-02-28T18:10:27;13.80;;;6.18;;
55989;SDS011;41875;55.806;38.082;2024-02-28T18:13:33;14.65;;;5.65;;
55989;SDS011;41875;55.806;38.082;2024-02-28T18:16:37;16.92;;;5.72;;
55989;SDS011;41875;55.806;38.082;2024-02-28T18:19:45;14.45;;;5.53;;
55989;SDS011;41875;55.806;38.082;2024-02-28T18:22:50;13.52;;;5.28;;
55989;SDS011;41875;55.806;38.082;2024-02-28T18:25:55;14.48;;;5.35;;
55989;SDS011;41875;55.806;38.082;2024-02-28T18:29:05;14.25;;;5.75;;
55989;SDS011;41875;55.806;38.082;2024-02-28T18:32:09;11.20;;;4.88;;
55989;SDS011;41875;55.806;38.082;2024-02-28T18:35:15;15.32;;;5.28;;
55989;SDS011;41875;55.806;38.082;2024-02-28T18:38:22;17.23;;;6.10;;
55989;SDS011;41875;55.806;38.082;2024-02-28T18:41:29;12.10;;;5.13;;